createdAt,value
2023-03-18T00:01:07.575Z,2.39
2023-03-18T00:03:37.600Z,2.36
2023-03-18T00:06:13.979Z,2.34
2023-03-18T00:08:42.776Z,2.35
2023-03-18T00:11:11.342Z,2.24
2023-03-18T00:13:38.872Z,2.21
2023-03-18T00:16:06.874Z,2.10
2023-03-18T00:18:34.471Z,1.98
2023-03-18T00:21:02.094Z,1.85
2023-03-18T00:23:29.164Z,1.70
2023-03-18T00:25:58.386Z,1.51
2023-03-18T00:28:26.004Z,1.43
2023-03-18T00:30:54.280Z,1.37
2023-03-18T00:33:21.345Z,1.40
2023-03-18T00:35:48.605Z,1.49
2023-03-18T00:38:20.821Z,1.54
2023-03-18T00:41:01.406Z,1.57
2023-03-18T00:43:33.778Z,1.69
2023-03-18T00:46:01.169Z,1.74
2023-03-18T00:48:28.127Z,1.84
2023-03-18T00:50:56.072Z,1.94
2023-03-18T00:53:25.170Z,2.00
2023-03-18T00:55:53.207Z,2.00
2023-03-18T00:58:20.242Z,2.03
2023-03-18T01:00:47.826Z,1.95
2023-03-18T01:03:14.831Z,1.76
2023-03-18T01:05:42.503Z,1.55
2023-03-18T01:08:09.607Z,1.45
2023-03-18T01:10:36.922Z,1.36
2023-03-18T01:13:03.853Z,1.31
2023-03-18T01:15:31.125Z,1.24
2023-03-18T01:17:58.533Z,1.16
2023-03-18T01:20:25.969Z,1.11
2023-03-18T01:22:52.813Z,1.04
2023-03-18T01:25:20.472Z,0.94
2023-03-18T01:27:47.377Z,0.86
2023-03-18T01:30:14.871Z,0.73
2023-03-18T01:32:43.929Z,0.61
2023-03-18T01:35:12.393Z,0.53
2023-03-18T01:37:39.774Z,0.48
2023-03-18T01:40:11.376Z,0.42
2023-03-18T01:42:38.745Z,0.37
2023-03-18T01:45:21.730Z,0.31
2023-03-18T01:47:49.940Z,0.22
2023-03-18T01:50:26.338Z,0.06
2023-03-18T01:52:58.154Z,-0.08
2023-03-18T01:55:28.331Z,-0.23
2023-03-18T01:57:56.424Z,-0.37
2023-03-18T02:00:24.072Z,-0.49
2023-03-18T02:02:55.442Z,-0.56
2023-03-18T02:05:28.945Z,-0.67
2023-03-18T02:07:55.940Z,-0.73
2023-03-18T02:10:29.388Z,-0.84
2023-03-18T02:13:03.641Z,-0.85
2023-03-18T02:15:33.976Z,-0.90
2023-03-18T02:18:08.124Z,-0.98
2023-03-18T02:20:53.668Z,-1.08
2023-03-18T02:23:29.258Z,-1.16
2023-03-18T02:26:10.482Z,-1.24
2023-03-18T02:28:38.823Z,-1.31
2023-03-18T02:31:11.951Z,-1.38
2023-03-18T02:33:41.003Z,-1.40
2023-03-18T02:36:13.761Z,-1.37
2023-03-18T02:38:43.150Z,-1.32
2023-03-18T02:41:21.956Z,-1.32
2023-03-18T02:43:50.080Z,-1.25
2023-03-18T02:49:21.585Z,-0.75
2023-03-18T02:51:49.428Z,-0.64
2023-03-18T02:54:20.989Z,-0.39
2023-03-18T02:56:48.592Z,-0.13
2023-03-18T02:59:15.867Z,0.19
2023-03-18T03:01:45.211Z,0.50
2023-03-18T03:04:12.475Z,0.80
2023-03-18T03:06:40.751Z,1.02
2023-03-18T03:09:10.358Z,1.15
2023-03-18T03:11:37.825Z,1.23
2023-03-18T03:14:05.265Z,1.34
2023-03-18T03:16:32.821Z,1.41
2023-03-18T03:18:59.672Z,1.41
2023-03-18T03:21:27.898Z,1.29
2023-03-18T03:23:56.137Z,1.04
2023-03-18T03:26:23.244Z,0.76
2023-03-18T03:28:50.088Z,0.57
2023-03-18T03:31:17.842Z,0.35
2023-03-18T03:33:45.375Z,0.08
2023-03-18T03:36:15.650Z,-0.09
2023-03-18T03:38:43.651Z,-0.24
2023-03-18T03:41:12.418Z,-0.38
2023-03-18T03:43:40.700Z,-0.48
2023-03-18T03:46:09.579Z,-0.54
2023-03-18T03:48:37.221Z,-0.57
2023-03-18T03:51:05.504Z,-0.58
2023-03-18T03:53:34.053Z,-0.59
2023-03-18T03:56:01.245Z,-0.63
2023-03-18T03:58:29.188Z,-0.66
2023-03-18T04:00:56.561Z,-0.69
2023-03-18T04:03:23.857Z,-0.72
2023-03-18T04:05:51.204Z,-0.78
2023-03-18T04:08:18.227Z,-0.82
2023-03-18T04:10:45.496Z,-0.84
2023-03-18T04:13:12.356Z,-0.89
2023-03-18T04:15:40.075Z,-0.96
2023-03-18T04:18:07.319Z,-1.02
2023-03-18T04:20:37.683Z,-1.08
2023-03-18T04:23:05.086Z,-1.14
2023-03-18T04:25:33.316Z,-1.20
2023-03-18T04:28:00.244Z,-1.29
2023-03-18T04:30:28.322Z,-1.33
2023-03-18T04:32:55.466Z,-1.35
2023-03-18T04:35:23.584Z,-1.39
2023-03-18T04:37:50.810Z,-1.44
2023-03-18T04:40:18.464Z,-1.53
2023-03-18T04:42:47.944Z,-1.56
2023-03-18T04:45:16.289Z,-1.57
2023-03-18T04:47:45.339Z,-1.47
2023-03-18T04:50:13.870Z,-1.19
2023-03-18T04:52:42.882Z,-0.82
2023-03-18T04:55:10.905Z,-0.50
2023-03-18T04:57:38.644Z,-0.18
2023-03-18T05:00:10.355Z,0.19
2023-03-18T05:02:40.027Z,0.71
2023-03-18T05:05:08.159Z,1.27
2023-03-18T05:07:35.374Z,1.78
2023-03-18T05:10:03.403Z,2.31
2023-03-18T05:12:30.637Z,2.90
2023-03-18T05:14:57.540Z,3.51
2023-03-18T05:17:25.642Z,4.05
2023-03-18T05:19:52.493Z,4.61
2023-03-18T05:22:22.038Z,5.24
2023-03-18T05:24:49.726Z,5.79
2023-03-18T05:27:18.996Z,6.46
2023-03-18T05:29:46.326Z,7.10
2023-03-18T05:32:15.181Z,7.66
2023-03-18T05:34:43.025Z,8.18
2023-03-18T05:37:12.226Z,8.56
2023-03-18T05:39:39.586Z,8.96
2023-03-18T05:42:07.541Z,9.22
2023-03-18T05:44:34.859Z,9.58
2023-03-18T05:47:02.747Z,9.94
2023-03-18T05:49:29.836Z,10.34
2023-03-18T05:51:57.135Z,10.80
2023-03-18T05:54:24.259Z,11.29
2023-03-18T05:56:52.792Z,11.65
2023-03-18T05:59:20.579Z,12.07
2023-03-18T06:01:49.193Z,12.53
2023-03-18T06:04:20.100Z,12.86
2023-03-18T06:06:48.400Z,13.27
2023-03-18T06:09:16.647Z,13.65
2023-03-18T06:11:45.717Z,14.09
2023-03-18T06:14:13.111Z,14.46
2023-03-18T06:16:41.821Z,14.82
2023-03-18T06:19:10.850Z,15.16
2023-03-18T06:21:41.201Z,15.62
2023-03-18T06:24:09.594Z,16.00
2023-03-18T06:26:36.971Z,16.31
2023-03-18T06:29:05.365Z,16.77
2023-03-18T06:31:33.089Z,17.06
2023-03-18T06:34:01.420Z,17.07
2023-03-18T06:36:28.874Z,16.52
2023-03-18T06:38:56.162Z,16.47
2023-03-18T06:41:23.523Z,16.63
2023-03-18T06:43:51.855Z,16.68
2023-03-18T06:46:19.452Z,16.56
2023-03-18T06:48:46.640Z,16.85
2023-03-18T06:51:13.917Z,16.74
2023-03-18T06:53:42.106Z,16.76
2023-03-18T06:56:10.007Z,17.15
2023-03-18T06:58:37.862Z,17.71
2023-03-18T07:01:05.412Z,18.01
2023-03-18T07:03:32.984Z,18.39
2023-03-18T07:06:01.292Z,18.89
2023-03-18T07:08:29.360Z,19.41
2023-03-18T07:10:57.802Z,19.80
2023-03-18T07:13:25.069Z,20.24
2023-03-18T07:15:52.444Z,20.05
2023-03-18T07:18:19.731Z,19.68
2023-03-18T07:20:46.990Z,17.76
2023-03-18T07:23:14.227Z,16.42
2023-03-18T07:25:42.469Z,15.02
2023-03-18T07:28:09.401Z,14.51
2023-03-18T07:30:36.782Z,14.19
2023-03-18T07:33:04.455Z,13.79
2023-03-18T07:35:32.814Z,14.03
2023-03-18T07:37:59.829Z,13.92
2023-03-18T07:40:27.116Z,14.04
2023-03-18T07:42:53.955Z,14.05
2023-03-18T07:45:21.149Z,13.88
2023-03-18T07:47:48.331Z,13.79
2023-03-18T07:50:16.352Z,13.40
2023-03-18T07:52:43.317Z,13.34
2023-03-18T07:55:12.105Z,13.55
2023-03-18T07:57:39.287Z,13.82
2023-03-18T08:00:08.610Z,13.81
2023-03-18T08:02:36.281Z,13.71
2023-03-18T08:05:06.884Z,13.71
2023-03-18T08:07:35.672Z,13.84
2023-03-18T08:10:03.418Z,14.08
2023-03-18T08:12:45.283Z,14.16
2023-03-18T08:15:18.662Z,14.28
2023-03-18T08:17:45.974Z,14.17
2023-03-18T08:20:13.500Z,14.03
2023-03-18T08:22:40.343Z,14.35
2023-03-18T08:25:08.152Z,14.41
2023-03-18T08:27:35.183Z,14.31
2023-03-18T08:30:03.955Z,13.73
2023-03-18T08:32:31.209Z,13.79
2023-03-18T08:34:58.447Z,13.42
2023-03-18T08:37:26.047Z,13.45
2023-03-18T08:39:53.251Z,13.22
2023-03-18T08:42:20.379Z,13.66
2023-03-18T08:44:47.676Z,14.24
2023-03-18T08:47:15.050Z,14.70
2023-03-18T08:49:42.439Z,14.79
2023-03-18T08:52:10.600Z,15.04
2023-03-18T08:54:37.919Z,14.90
2023-03-18T08:57:04.973Z,15.29
2023-03-18T08:59:32.146Z,15.64
2023-03-18T09:01:59.149Z,15.66
2023-03-18T09:04:26.471Z,15.99
2023-03-18T09:06:53.423Z,16.19
2023-03-18T09:09:22.805Z,16.12
2023-03-18T09:11:51.460Z,16.14
2023-03-18T09:14:18.789Z,16.37
2023-03-18T09:16:46.203Z,16.88
2023-03-18T09:19:13.512Z,17.60
2023-03-18T09:21:40.378Z,17.68
2023-03-18T09:24:07.793Z,17.97
2023-03-18T09:26:34.666Z,18.25
2023-03-18T09:29:01.963Z,18.07
2023-03-18T09:31:28.822Z,18.84
2023-03-18T09:33:56.467Z,19.05
2023-03-18T09:36:23.409Z,18.73
2023-03-18T09:38:50.644Z,18.69
2023-03-18T09:41:38.749Z,18.19
2023-03-18T09:44:13.766Z,17.43
2023-03-18T09:46:58.745Z,17.11
2023-03-18T09:49:59.376Z,16.78
2023-03-18T09:52:31.987Z,17.00
2023-03-18T09:55:52.547Z,17.11
2023-03-18T09:58:46.710Z,16.54
2023-03-18T10:01:15.923Z,16.42
2023-03-18T10:03:53.924Z,16.60
2023-03-18T10:06:23.865Z,17.08
2023-03-18T10:09:12.392Z,17.77
2023-03-18T10:11:44.375Z,18.04
2023-03-18T10:14:48.750Z,17.78
2023-03-18T10:17:30.394Z,17.79
2023-03-18T10:20:04.631Z,17.55
2023-03-18T10:22:53.384Z,17.84
2023-03-18T10:25:28.935Z,17.73
2023-03-18T10:28:20.965Z,17.56
2023-03-18T10:31:01.375Z,17.53
2023-03-18T10:33:46.685Z,18.06
2023-03-18T10:36:19.302Z,19.06
2023-03-18T10:38:51.905Z,19.07
2023-03-18T10:41:25.388Z,19.39
2023-03-18T10:43:55.664Z,19.00
2023-03-18T10:46:25.660Z,18.84
2023-03-18T10:48:59.261Z,18.62
2023-03-18T10:51:54.141Z,18.58
2023-03-18T10:54:41.265Z,18.59
2023-03-18T10:57:14.616Z,18.87
2023-03-18T10:59:44.761Z,19.36
2023-03-18T11:02:20.476Z,19.72
2023-03-18T11:04:54.530Z,20.06
2023-03-18T11:07:28.606Z,19.82
2023-03-18T11:10:12.170Z,19.14
2023-03-18T11:12:39.177Z,19.25
2023-03-18T11:15:13.465Z,19.15
2023-03-18T11:17:40.874Z,19.48
2023-03-18T11:20:17.075Z,19.08
2023-03-18T11:22:47.835Z,18.84
2023-03-18T11:25:17.151Z,18.75
2023-03-18T11:27:47.239Z,19.08
2023-03-18T11:30:36.586Z,18.76
2023-03-18T11:33:25.349Z,18.73
2023-03-18T11:35:53.910Z,19.07
2023-03-18T11:38:32.834Z,19.49
2023-03-18T11:41:08.939Z,18.83
2023-03-18T11:43:38.052Z,18.16
2023-03-18T11:46:08.998Z,17.53
2023-03-18T11:48:39.458Z,17.31
2023-03-18T11:51:28.744Z,17.13
2023-03-18T11:54:40.401Z,17.29
2023-03-18T11:57:25.678Z,17.63
2023-03-18T12:00:01.044Z,17.75
2023-03-18T12:02:46.857Z,17.41
2023-03-18T12:05:41.937Z,17.60
2023-03-18T12:08:34.478Z,17.45
2023-03-18T12:11:20.073Z,17.88
2023-03-18T12:14:00.197Z,17.70
2023-03-18T12:16:50.481Z,17.31
2023-03-18T12:19:51.406Z,16.76
2023-03-18T12:22:26.701Z,16.72
2023-03-18T12:25:03.243Z,16.75
2023-03-18T12:27:59.130Z,17.18
2023-03-18T12:30:53.238Z,17.36
2023-03-18T12:33:48.952Z,18.12
2023-03-18T12:36:36.806Z,19.00
2023-03-18T12:39:43.485Z,19.16
2023-03-18T12:42:14.593Z,19.01
2023-03-18T12:44:41.465Z,19.09
2023-03-18T12:47:20.544Z,19.30
2023-03-18T12:50:12.794Z,19.15
2023-03-18T12:52:45.692Z,19.01
2023-03-18T12:55:27.004Z,18.70
2023-03-18T12:58:08.732Z,18.36
2023-03-18T13:00:38.768Z,17.69
2023-03-18T13:03:28.658Z,17.29
2023-03-18T13:05:58.498Z,17.31
2023-03-18T13:08:40.780Z,17.36
2023-03-18T13:11:29.356Z,17.25
2023-03-18T13:14:01.678Z,17.16
2023-03-18T13:16:30.467Z,17.14
2023-03-18T13:18:59.216Z,16.76
2023-03-18T13:21:31.046Z,16.77
2023-03-18T13:24:26.170Z,16.58
2023-03-18T13:27:15.454Z,16.79
2023-03-18T13:29:48.682Z,16.62
2023-03-18T13:32:38.454Z,16.39
2023-03-18T13:35:56.720Z,16.03
2023-03-18T13:38:47.666Z,16.04
2023-03-18T13:41:33.584Z,15.93
2023-03-18T13:44:12.901Z,15.79
2023-03-18T13:46:43.675Z,15.76
2023-03-18T13:49:32.097Z,15.49
2023-03-18T13:52:02.121Z,15.35
2023-03-18T13:54:37.931Z,15.20
2023-03-18T13:57:19.131Z,14.93
2023-03-18T13:59:48.492Z,14.62
2023-03-18T14:02:24.901Z,14.35
2023-03-18T14:04:53.251Z,14.23
2023-03-18T14:07:22.527Z,14.06
2023-03-18T14:10:17.248Z,13.86
2023-03-18T14:12:49.795Z,13.72
2023-03-18T14:15:39.695Z,13.64
2023-03-18T14:18:19.986Z,13.55
2023-03-18T14:20:53.537Z,13.45
2023-03-18T14:24:00.638Z,13.49
2023-03-18T14:26:27.807Z,13.49
2023-03-18T14:29:23.736Z,13.37
2023-03-18T14:31:58.089Z,13.33
2023-03-18T14:34:32.040Z,13.29
2023-03-18T14:36:58.821Z,13.31
2023-03-18T14:39:48.009Z,13.26
2023-03-18T14:42:58.522Z,13.25
2023-03-18T14:45:33.890Z,13.18
2023-03-18T14:48:11.737Z,13.08
2023-03-18T14:50:47.257Z,13.04
2023-03-18T14:53:34.771Z,13.02
2023-03-18T14:56:04.158Z,13.01
2023-03-18T14:58:34.350Z,13.01
2023-03-18T15:01:09.163Z,12.96
2023-03-18T15:03:39.966Z,12.82
2023-03-18T15:06:08.147Z,12.82
2023-03-18T15:08:47.695Z,12.79
2023-03-18T15:11:18.191Z,12.77
2023-03-18T15:13:45.264Z,12.74
2023-03-18T15:16:18.287Z,12.72
2023-03-18T15:18:45.910Z,12.69
2023-03-18T15:21:32.582Z,12.65
2023-03-18T15:24:03.782Z,12.58
2023-03-18T15:26:34.185Z,12.53
2023-03-18T15:29:16.073Z,12.48
2023-03-18T15:31:44.765Z,12.45
2023-03-18T15:34:16.240Z,12.38
2023-03-18T15:36:45.802Z,12.36
2023-03-18T15:39:45.347Z,12.25
2023-03-18T15:42:19.913Z,12.22
2023-03-18T15:44:58.525Z,12.17
2023-03-18T15:47:33.518Z,12.15
2023-03-18T15:50:14.677Z,12.12
2023-03-18T15:52:43.122Z,12.08
2023-03-18T15:55:28.073Z,12.02
2023-03-18T15:57:56.276Z,11.96
2023-03-18T16:00:23.520Z,11.93
2023-03-18T16:02:51.624Z,11.86
2023-03-18T16:05:23.201Z,11.73
2023-03-18T16:07:55.382Z,11.58
2023-03-18T16:10:25.812Z,11.47
2023-03-18T16:12:58.030Z,11.34
2023-03-18T16:15:26.520Z,11.21
2023-03-18T16:17:55.632Z,11.10
2023-03-18T16:20:28.955Z,10.93
2023-03-18T16:22:57.919Z,10.81
2023-03-18T16:25:26.517Z,10.69
2023-03-18T16:27:59.797Z,10.56
2023-03-18T16:30:29.740Z,10.43
2023-03-18T16:32:58.327Z,10.28
2023-03-18T16:35:30.864Z,10.09
2023-03-18T16:37:59.866Z,9.86
2023-03-18T16:40:29.248Z,9.61
2023-03-18T16:42:56.780Z,9.28
2023-03-18T16:45:34.094Z,9.00
2023-03-18T16:48:04.124Z,8.82
2023-03-18T16:50:36.007Z,8.57
2023-03-18T16:53:03.729Z,8.35
2023-03-18T16:55:31.701Z,8.10
2023-03-18T16:58:00.637Z,7.85
2023-03-18T17:00:31.857Z,7.59
2023-03-18T17:03:00.940Z,7.40
2023-03-18T17:05:28.631Z,7.21
2023-03-18T17:07:55.973Z,7.01
2023-03-18T17:10:25.944Z,6.86
2023-03-18T17:12:59.669Z,6.70
2023-03-18T17:15:29.966Z,6.44
2023-03-18T17:18:00.110Z,6.26
2023-03-18T17:20:30.353Z,6.13
2023-03-18T17:22:58.358Z,5.96
2023-03-18T17:25:28.071Z,5.79
2023-03-18T17:28:03.046Z,5.59
2023-03-18T17:30:39.465Z,5.39
2023-03-18T17:33:29.088Z,5.23
2023-03-18T17:35:56.657Z,5.12
2023-03-18T17:38:24.518Z,4.98
2023-03-18T17:40:52.110Z,4.86
2023-03-18T17:43:34.405Z,4.69
2023-03-18T17:46:03.225Z,4.54
2023-03-18T17:48:35.197Z,4.42
2023-03-18T17:51:17.495Z,4.33
2023-03-18T17:53:51.499Z,4.23
2023-03-18T17:56:20.277Z,4.08
2023-03-18T17:58:50.500Z,3.93
2023-03-18T18:01:26.547Z,3.86
2023-03-18T18:03:59.014Z,3.77
2023-03-18T18:06:32.076Z,3.67
2023-03-18T18:09:01.043Z,3.59
2023-03-18T18:11:33.336Z,3.46
2023-03-18T18:14:06.696Z,3.41
2023-03-18T18:16:33.563Z,3.35
2023-03-18T18:19:00.768Z,3.27
2023-03-18T18:21:27.729Z,3.18
2023-03-18T18:23:54.946Z,3.08
2023-03-18T18:26:22.205Z,2.99
2023-03-18T18:28:51.732Z,2.89
2023-03-18T18:31:19.918Z,2.79
2023-03-18T18:33:50.135Z,2.74
2023-03-18T18:36:18.155Z,2.66
2023-03-18T18:38:45.806Z,2.61
2023-03-18T18:41:12.769Z,2.55
2023-03-18T18:43:39.937Z,2.49
2023-03-18T18:46:19.698Z,2.44
2023-03-18T18:48:50.330Z,2.40
2023-03-18T18:51:19.467Z,2.38
2023-03-18T18:53:47.711Z,2.38
2023-03-18T18:56:22.372Z,2.33
2023-03-18T18:58:51.894Z,2.28
2023-03-18T19:01:19.888Z,2.23
2023-03-18T19:03:48.415Z,2.17
2023-03-18T19:06:35.966Z,2.11
2023-03-18T19:09:18.961Z,2.06
2023-03-18T19:11:53.240Z,1.98
2023-03-18T19:14:27.428Z,1.91
2023-03-18T19:16:59.588Z,1.85
2023-03-18T19:19:34.697Z,1.77
2023-03-18T19:22:02.986Z,1.73
2023-03-18T19:24:32.703Z,1.66
2023-03-18T19:27:02.972Z,1.61
2023-03-18T19:29:32.633Z,1.55
2023-03-18T19:32:01.410Z,1.54
2023-03-18T19:34:29.855Z,1.48
2023-03-18T19:36:57.048Z,1.53
2023-03-18T19:39:25.257Z,1.56
2023-03-18T19:41:52.238Z,1.58
2023-03-18T19:44:26.688Z,1.58
2023-03-18T19:46:56.436Z,1.57
2023-03-18T19:49:33.772Z,1.56
2023-03-18T19:52:02.509Z,1.57
2023-03-18T19:54:36.681Z,1.58
2023-03-18T19:57:07.283Z,1.63
2023-03-18T19:59:39.126Z,1.77
2023-03-18T20:02:30.588Z,1.85
2023-03-18T20:04:59.730Z,1.90
2023-03-18T20:07:30.407Z,1.94
2023-03-18T20:09:57.638Z,1.94
2023-03-18T20:12:39.012Z,1.92
2023-03-18T20:15:13.080Z,1.92
2023-03-18T20:17:42.102Z,1.90
2023-03-18T20:20:19.410Z,1.84
2023-03-18T20:22:53.030Z,1.74
2023-03-18T20:25:24.663Z,1.62
2023-03-18T20:27:53.635Z,1.58
2023-03-18T20:30:37.423Z,1.54
2023-03-18T20:33:05.243Z,1.49
2023-03-18T20:35:36.056Z,1.44
2023-03-18T20:38:33.344Z,1.42
2023-03-18T20:41:01.167Z,1.38
2023-03-18T20:43:29.279Z,1.38
2023-03-18T20:45:58.354Z,1.36
2023-03-18T20:48:25.738Z,1.33
2023-03-18T20:50:53.480Z,1.28
2023-03-18T20:53:26.333Z,1.19
2023-03-18T20:55:53.608Z,1.13
2023-03-18T20:58:30.212Z,1.12
2023-03-18T21:00:57.591Z,1.07
2023-03-18T21:03:30.085Z,1.03
2023-03-18T21:05:59.460Z,0.98
2023-03-18T21:08:28.097Z,0.91
2023-03-18T21:10:58.557Z,0.86
2023-03-18T21:13:36.096Z,0.80
2023-03-18T21:16:08.549Z,0.78
2023-03-18T21:18:35.723Z,0.75
2023-03-18T21:21:03.008Z,0.74
2023-03-18T21:23:32.284Z,0.79
2023-03-18T21:25:59.570Z,0.86
2023-03-18T21:28:28.765Z,0.93
2023-03-18T21:30:58.411Z,0.96
2023-03-18T21:33:31.351Z,0.96
2023-03-18T21:35:59.246Z,0.96
2023-03-18T21:38:29.233Z,0.96
2023-03-18T21:40:58.238Z,0.97
2023-03-18T21:43:36.761Z,0.93
2023-03-18T21:46:06.723Z,0.88
2023-03-18T21:48:33.774Z,0.85
2023-03-18T21:51:01.298Z,0.80
2023-03-18T21:53:28.766Z,0.79
2023-03-18T21:55:56.293Z,0.75
2023-03-18T21:58:25.759Z,0.71
2023-03-18T22:00:56.190Z,0.65
2023-03-18T22:03:25.845Z,0.63
2023-03-18T22:05:53.649Z,0.65
2023-03-18T22:08:21.484Z,0.67
2023-03-18T22:10:50.663Z,0.61
2023-03-18T22:13:23.783Z,0.64
2023-03-18T22:15:56.163Z,0.67
2023-03-18T22:18:23.804Z,0.68
2023-03-18T22:20:51.695Z,0.70
2023-03-18T22:23:24.712Z,0.75
2023-03-18T22:25:54.564Z,0.88
2023-03-18T22:28:22.623Z,1.01
2023-03-18T22:30:52.837Z,1.05
2023-03-18T22:33:26.583Z,1.14
2023-03-18T22:35:53.931Z,1.22
2023-03-18T22:38:23.104Z,1.21
2023-03-18T22:40:53.097Z,1.15
2023-03-18T22:43:31.045Z,1.08
2023-03-18T22:45:59.835Z,0.98
2023-03-18T22:48:27.136Z,0.88
2023-03-18T22:50:55.086Z,0.83
2023-03-18T22:53:25.672Z,0.75
2023-03-18T22:55:55.947Z,0.73
2023-03-18T22:58:26.381Z,0.69
2023-03-18T23:00:55.179Z,0.69
2023-03-18T23:03:33.872Z,0.61
2023-03-18T23:06:02.152Z,0.57
2023-03-18T23:08:29.608Z,0.55
2023-03-18T23:11:01.387Z,0.57
2023-03-18T23:13:38.639Z,0.63
2023-03-18T23:16:07.691Z,0.70
2023-03-18T23:18:34.854Z,0.80
2023-03-18T23:21:02.084Z,0.99
2023-03-18T23:23:30.460Z,1.19
2023-03-18T23:25:57.950Z,1.33
2023-03-18T23:28:24.962Z,1.50
2023-03-18T23:30:53.109Z,1.62
2023-03-18T23:33:20.597Z,1.66
2023-03-18T23:35:48.917Z,1.69
2023-03-18T23:38:16.218Z,1.62
2023-03-18T23:40:43.432Z,1.56
2023-03-18T23:43:10.492Z,1.53
2023-03-18T23:45:38.701Z,1.54
2023-03-18T23:48:06.766Z,1.47
2023-03-18T23:50:34.195Z,1.44
2023-03-18T23:53:01.311Z,1.43
2023-03-18T23:55:34.912Z,1.41
2023-03-18T23:58:05.296Z,1.37
